Harwood, North Dakota
Current Conditions -  °F | °C
As of 12:53 PM on Tuesday 27 Jan 2015 (Local Time) from KFAR Reporting Station
Overcast Overcast  
Wind Chill: 19°   Ceiling: 400
Heat Index: 31°   Visibility: 9mi
Dew Point: 29°   Wind: 17mph
Humidity: 92%   Direction: 150°SSE
Pressure: 30.03"   Gusts: 24mph
Location:  46.98°N, 96.88°W
Report Text: KFAR 271853Z 15015G21KT 9SM OVC004 M01/M02 A3003 RMK AO2 SLP183 T10061017
Loading
Personal Weather Stations






























Interactive Weather Map New forecast layout! Learn more

10-Day Weather Forecast

Advertisements
Track Severe Weather on mobile